createdAt,value
2023-03-14T00:00:23.180Z,2.57
2023-03-14T00:02:55.996Z,2.52
2023-03-14T00:05:25.064Z,2.42
2023-03-14T00:07:53.963Z,2.36
2023-03-14T00:10:23.254Z,2.33
2023-03-14T00:12:51.955Z,2.25
2023-03-14T00:15:20.531Z,2.26
2023-03-14T00:17:50.950Z,2.17
2023-03-14T00:20:29.078Z,2.17
2023-03-14T00:22:58.564Z,2.12
2023-03-14T00:25:27.115Z,2.09
2023-03-14T00:27:55.726Z,2.05
2023-03-14T00:30:24.417Z,2.03
2023-03-14T00:32:53.048Z,2.02
2023-03-14T00:35:21.781Z,1.97
2023-03-14T00:37:54.705Z,2.01
2023-03-14T00:40:23.390Z,1.99
2023-03-14T00:42:55.030Z,2.00
2023-03-14T00:45:25.377Z,2.00
2023-03-14T00:47:55.628Z,1.94
2023-03-14T00:50:24.107Z,1.96
2023-03-14T00:52:52.838Z,1.94
2023-03-14T00:55:21.469Z,1.84
2023-03-14T00:57:50.084Z,1.75
2023-03-14T01:00:18.907Z,1.78
2023-03-14T01:02:47.492Z,1.72
2023-03-14T01:05:16.215Z,1.74
2023-03-14T01:07:44.940Z,1.79
2023-03-14T01:10:13.616Z,1.75
2023-03-14T01:12:44.438Z,1.74
2023-03-14T01:15:13.118Z,1.72
2023-03-14T01:17:42.052Z,1.68
2023-03-14T01:20:12.995Z,1.66
2023-03-14T01:22:42.409Z,1.62
2023-03-14T01:25:14.238Z,1.54
2023-03-14T01:27:43.329Z,1.46
2023-03-14T01:30:13.408Z,1.46
2023-03-14T01:32:42.405Z,1.47
2023-03-14T01:35:11.372Z,1.47
2023-03-14T01:37:39.974Z,1.38
2023-03-14T01:40:10.404Z,1.32
2023-03-14T01:42:39.202Z,1.25
2023-03-14T01:45:09.866Z,1.19
2023-03-14T01:47:38.669Z,1.06
2023-03-14T01:50:11.490Z,0.99
2023-03-14T01:52:45.833Z,0.93
2023-03-14T01:55:20.078Z,0.80
2023-03-14T01:57:57.850Z,0.80
2023-03-14T02:00:26.906Z,0.77
2023-03-14T02:03:04.404Z,0.69
2023-03-14T02:05:36.095Z,0.35
2023-03-14T02:08:07.184Z,0.64
2023-03-14T02:10:41.584Z,0.81
2023-03-14T02:13:10.865Z,0.79
2023-03-14T02:15:40.177Z,0.73
2023-03-14T02:18:10.165Z,0.91
2023-03-14T02:20:53.869Z,0.86
2023-03-14T02:23:37.421Z,0.84
2023-03-14T02:26:24.045Z,0.72
2023-03-14T02:28:54.472Z,0.77
2023-03-14T02:31:25.274Z,0.63
2023-03-14T02:33:56.415Z,0.59
2023-03-14T02:36:26.259Z,0.67
2023-03-14T02:39:15.764Z,0.67
2023-03-14T02:41:46.750Z,0.46
2023-03-14T02:44:15.373Z,0.43
2023-03-14T02:46:46.000Z,0.49
2023-03-14T02:49:16.313Z,0.56
2023-03-14T02:51:47.382Z,0.49
2023-03-14T02:54:17.776Z,0.36
2023-03-14T02:56:46.297Z,0.33
2023-03-14T02:59:17.297Z,0.35
2023-03-14T03:01:47.586Z,0.36
2023-03-14T03:04:16.258Z,0.57
2023-03-14T03:06:44.814Z,0.42
2023-03-14T03:09:15.383Z,0.34
2023-03-14T03:11:48.409Z,0.37
2023-03-14T03:14:17.311Z,0.42
2023-03-14T03:16:45.919Z,0.30
2023-03-14T03:19:15.317Z,0.30
2023-03-14T03:21:44.114Z,0.38
2023-03-14T03:24:12.786Z,0.41
2023-03-14T03:26:41.600Z,0.28
2023-03-14T03:29:10.365Z,0.30
2023-03-14T03:31:40.428Z,0.31
2023-03-14T03:34:09.462Z,0.22
2023-03-14T03:36:38.089Z,0.31
2023-03-14T03:39:06.848Z,0.29
2023-03-14T03:41:35.584Z,0.30
2023-03-14T03:44:04.246Z,0.33
2023-03-14T03:46:32.969Z,0.15
2023-03-14T03:49:02.607Z,0.09
2023-03-14T03:51:31.201Z,0.04
2023-03-14T03:53:59.928Z,-0.05
2023-03-14T03:56:28.554Z,-0.11
2023-03-14T03:58:57.300Z,-0.10
2023-03-14T04:01:26.033Z,-0.08
2023-03-14T04:03:54.899Z,-0.05
2023-03-14T04:06:24.211Z,-0.06
2023-03-14T04:08:52.852Z,-0.08
2023-03-14T04:11:21.504Z,-0.14
2023-03-14T04:13:50.219Z,-0.24
2023-03-14T04:16:21.894Z,-0.28
2023-03-14T04:18:50.670Z,-0.23
2023-03-14T04:21:21.519Z,-0.13
2023-03-14T04:23:50.148Z,-0.18
2023-03-14T04:26:18.923Z,-0.23
2023-03-14T04:28:49.041Z,-0.24
2023-03-14T04:31:20.889Z,-0.25
2023-03-14T04:33:50.145Z,-0.34
2023-03-14T04:36:18.776Z,-0.29
2023-03-14T04:38:47.381Z,-0.15
2023-03-14T04:41:16.065Z,-0.09
2023-03-14T04:43:47.739Z,-0.16
2023-03-14T04:46:18.186Z,-0.08
2023-03-14T04:48:46.949Z,-0.07
2023-03-14T04:51:15.525Z,-0.07
2023-03-14T04:53:44.087Z,-0.09
2023-03-14T04:56:14.122Z,-0.06
2023-03-14T04:58:43.004Z,-0.03
2023-03-14T05:01:13.234Z,-0.06
2023-03-14T05:03:41.788Z,0.09
2023-03-14T05:06:10.682Z,0.22
2023-03-14T05:08:39.300Z,0.26
2023-03-14T05:11:08.041Z,0.32
2023-03-14T05:13:39.150Z,0.28
2023-03-14T05:16:09.629Z,0.35
2023-03-14T05:18:38.492Z,0.45
2023-03-14T05:21:07.502Z,0.64
2023-03-14T05:23:39.052Z,0.77
2023-03-14T05:26:08.068Z,1.01
2023-03-14T05:28:36.708Z,1.09
2023-03-14T05:31:12.143Z,1.30
2023-03-14T05:33:44.724Z,1.36
2023-03-14T05:36:16.704Z,1.49
2023-03-14T05:38:45.376Z,1.72
2023-03-14T05:41:14.105Z,1.83
2023-03-14T05:43:44.446Z,1.77
2023-03-14T05:46:13.117Z,1.80
2023-03-14T05:48:41.894Z,2.05
2023-03-14T05:51:10.769Z,2.16
2023-03-14T05:53:39.658Z,2.23
2023-03-14T05:56:09.290Z,2.22
2023-03-14T05:58:39.289Z,2.13
2023-03-14T06:01:09.519Z,2.15
2023-03-14T06:03:42.535Z,2.08
2023-03-14T06:06:11.292Z,2.11
2023-03-14T06:08:43.170Z,2.12
2023-03-14T06:11:12.250Z,2.31
2023-03-14T06:13:45.827Z,2.30
2023-03-14T06:16:23.151Z,2.30
2023-03-14T06:18:52.854Z,2.34
2023-03-14T06:22:17.550Z,2.30
2023-03-14T06:24:34.297Z,2.39
2023-03-14T06:27:17.861Z,2.58
2023-03-14T06:29:59.129Z,2.72
2023-03-14T06:32:51.481Z,2.77
2023-03-14T06:35:21.751Z,3.03
2023-03-14T06:37:50.708Z,3.19
2023-03-14T06:40:24.064Z,3.41
2023-03-14T06:42:53.873Z,3.52
2023-03-14T06:45:22.705Z,3.81
2023-03-14T06:47:51.441Z,3.81
2023-03-14T06:50:20.817Z,3.99
2023-03-14T06:52:51.626Z,3.63
2023-03-14T06:55:28.046Z,4.15
2023-03-14T06:57:56.800Z,4.15
2023-03-14T07:00:26.113Z,4.24
2023-03-14T07:02:54.920Z,4.24
2023-03-14T07:05:23.695Z,4.44
2023-03-14T07:08:03.289Z,4.51
2023-03-14T07:10:31.924Z,4.59
2023-03-14T07:13:04.903Z,4.35
2023-03-14T07:15:42.321Z,4.65
2023-03-14T07:18:13.369Z,4.93
2023-03-14T07:20:45.180Z,5.06
2023-03-14T07:23:16.936Z,5.00
2023-03-14T07:25:48.326Z,4.90
2023-03-14T07:28:18.664Z,4.76
2023-03-14T07:30:52.015Z,5.09
2023-03-14T07:33:23.974Z,5.09
2023-03-14T07:35:52.844Z,5.09
2023-03-14T07:38:23.339Z,5.13
2023-03-14T07:40:53.545Z,5.04
2023-03-14T07:43:22.205Z,5.12
2023-03-14T07:45:58.972Z,5.33
2023-03-14T07:48:24.384Z,5.32
2023-03-14T07:50:55.596Z,5.00
2023-03-14T07:53:24.768Z,5.19
2023-03-14T07:55:56.730Z,5.54
2023-03-14T07:58:25.435Z,5.72
2023-03-14T08:00:55.825Z,5.96
2023-03-14T08:03:24.541Z,6.37
2023-03-14T08:05:54.896Z,6.03
2023-03-14T08:08:23.485Z,6.27
2023-03-14T08:10:52.272Z,6.60
2023-03-14T08:13:22.481Z,6.56
2023-03-14T08:15:52.397Z,6.64
2023-03-14T08:18:21.057Z,6.69
2023-03-14T08:20:49.677Z,6.56
2023-03-14T08:23:18.357Z,6.89
2023-03-14T08:25:47.120Z,7.25
2023-03-14T08:28:15.615Z,7.57
2023-03-14T08:30:47.797Z,7.50
2023-03-14T08:33:18.113Z,7.12
2023-03-14T08:35:48.637Z,7.33
2023-03-14T08:38:17.371Z,7.91
2023-03-14T08:40:46.067Z,7.77
2023-03-14T08:43:14.776Z,7.59
2023-03-14T08:45:43.396Z,7.43
2023-03-14T08:48:12.135Z,7.60
2023-03-14T08:50:40.965Z,8.21
2023-03-14T08:53:12.830Z,8.52
2023-03-14T08:55:43.005Z,8.73
2023-03-14T08:58:11.765Z,8.83
2023-03-14T09:00:40.555Z,9.18
2023-03-14T09:03:09.157Z,9.14
2023-03-14T09:05:39.885Z,9.28
2023-03-14T09:08:09.792Z,8.98
2023-03-14T09:10:39.754Z,9.36
2023-03-14T09:13:08.418Z,9.61
2023-03-14T09:15:37.035Z,10.08
2023-03-14T09:18:05.794Z,9.53
2023-03-14T09:20:35.928Z,10.06
2023-03-14T09:23:04.624Z,10.21
2023-03-14T09:25:33.291Z,10.48
2023-03-14T09:28:01.913Z,10.72
2023-03-14T09:30:30.572Z,10.34
2023-03-14T09:33:00.276Z,10.65
2023-03-14T09:35:29.208Z,10.82
2023-03-14T09:37:57.939Z,10.96
2023-03-14T09:40:28.847Z,11.01
2023-03-14T09:42:59.891Z,11.10
2023-03-14T09:45:32.244Z,11.08
2023-03-14T09:48:03.447Z,11.13
2023-03-14T09:50:37.966Z,11.34
2023-03-14T09:53:09.604Z,11.69
2023-03-14T09:55:38.926Z,12.00
2023-03-14T09:58:13.748Z,11.98
2023-03-14T10:00:46.228Z,12.12
2023-03-14T10:03:17.892Z,12.31
2023-03-14T10:05:46.838Z,12.15
2023-03-14T10:08:16.318Z,12.20
2023-03-14T10:10:45.174Z,11.92
2023-03-14T10:13:29.142Z,12.12
2023-03-14T10:16:09.249Z,12.07
2023-03-14T10:18:37.823Z,12.29
2023-03-14T10:21:09.372Z,12.36
2023-03-14T10:23:39.528Z,12.46
2023-03-14T10:26:24.953Z,12.67
2023-03-14T10:29:17.402Z,11.96
2023-03-14T10:31:54.924Z,12.68
2023-03-14T10:34:27.219Z,12.97
2023-03-14T10:36:59.069Z,13.23
2023-03-14T10:39:43.901Z,12.79
2023-03-14T10:42:15.510Z,13.04
2023-03-14T10:44:44.805Z,13.13
2023-03-14T10:47:19.454Z,13.21
2023-03-14T10:49:48.824Z,13.37
2023-03-14T10:52:57.440Z,13.80
2023-03-14T10:55:09.232Z,13.41
2023-03-14T10:57:43.348Z,13.75
2023-03-14T11:00:20.709Z,13.86
2023-03-14T11:03:10.381Z,13.99
2023-03-14T11:05:56.898Z,13.85
2023-03-14T11:08:34.708Z,14.35
2023-03-14T11:11:27.672Z,14.60
2023-03-14T11:14:08.341Z,14.75
2023-03-14T11:16:58.239Z,14.80
2023-03-14T11:19:43.018Z,14.86
2023-03-14T11:22:33.126Z,15.01
2023-03-14T11:25:04.757Z,14.96
2023-03-14T11:27:39.230Z,14.78
2023-03-14T11:30:23.294Z,15.00
2023-03-14T11:33:07.077Z,15.33
2023-03-14T11:35:39.090Z,14.87
2023-03-14T11:38:13.265Z,15.14
2023-03-14T11:40:43.019Z,15.08
2023-03-14T11:43:19.492Z,15.19
2023-03-14T11:45:52.576Z,14.93
2023-03-14T11:48:50.237Z,14.83
2023-03-14T11:51:24.998Z,15.21
2023-03-14T11:54:11.463Z,15.69
2023-03-14T11:56:45.883Z,15.74
2023-03-14T11:59:25.592Z,15.81
2023-03-14T12:02:13.440Z,15.82
2023-03-14T12:05:16.225Z,15.91
2023-03-14T12:07:54.150Z,15.86
2023-03-14T12:10:22.943Z,15.68
2023-03-14T12:12:52.047Z,15.67
2023-03-14T12:15:23.778Z,15.80
2023-03-14T12:18:04.377Z,15.40
2023-03-14T12:20:33.239Z,15.27
2023-03-14T12:23:07.535Z,15.74
2023-03-14T12:25:37.042Z,15.83
2023-03-14T12:28:08.683Z,15.43
2023-03-14T12:30:43.712Z,15.67
2023-03-14T12:36:58.834Z,15.82
2023-03-14T12:39:52.178Z,15.82
2023-03-14T12:42:32.492Z,15.94
2023-03-14T12:45:05.433Z,15.57
2023-03-14T12:47:42.939Z,15.33
2023-03-14T12:50:17.601Z,15.33
2023-03-14T12:53:01.124Z,15.33
2023-03-14T12:55:50.693Z,15.53
2023-03-14T12:58:34.372Z,15.47
2023-03-14T13:01:06.664Z,15.99
2023-03-14T13:03:50.384Z,16.09
2023-03-14T13:06:48.152Z,16.00
2023-03-14T13:09:33.436Z,15.84
2023-03-14T13:12:11.310Z,15.75
2023-03-14T13:14:48.986Z,15.90
2023-03-14T13:17:35.796Z,16.10
2023-03-14T13:20:05.726Z,16.15
2023-03-14T13:22:38.151Z,15.97
2023-03-14T13:25:09.305Z,16.10
2023-03-14T13:27:39.053Z,16.18
2023-03-14T13:30:27.843Z,16.41
2023-03-14T13:32:58.226Z,16.25
2023-03-14T13:35:32.147Z,15.84
2023-03-14T13:38:12.306Z,15.79
2023-03-14T13:40:35.366Z,16.12
2023-03-14T13:43:10.051Z,16.30
2023-03-14T13:45:59.901Z,16.16
2023-03-14T13:48:35.616Z,16.35
2023-03-14T13:51:10.733Z,16.51
2023-03-14T13:53:53.888Z,16.23
2023-03-14T13:56:28.617Z,16.53
2023-03-14T13:58:59.076Z,16.43
2023-03-14T14:01:37.101Z,16.63
2023-03-14T14:04:14.595Z,16.49
2023-03-14T14:07:00.808Z,16.59
2023-03-14T14:09:41.551Z,16.24
2023-03-14T14:12:20.036Z,16.35
2023-03-14T14:14:51.647Z,16.14
2023-03-14T14:17:23.291Z,15.84
2023-03-14T14:19:53.182Z,16.13
2023-03-14T14:22:22.754Z,16.20
2023-03-14T14:24:53.069Z,16.13
2023-03-14T14:27:27.705Z,16.07
2023-03-14T14:30:20.548Z,16.16
2023-03-14T14:32:52.443Z,16.20
2023-03-14T14:35:37.839Z,16.18
2023-03-14T14:38:15.275Z,15.90
2023-03-14T14:40:52.140Z,15.84
2023-03-14T14:43:29.656Z,15.58
2023-03-14T14:46:00.400Z,15.73
2023-03-14T14:48:30.346Z,15.83
2023-03-14T14:51:04.989Z,15.66
2023-03-14T14:53:39.489Z,15.74
2023-03-14T14:56:23.486Z,15.57
2023-03-14T14:59:02.761Z,15.44
2023-03-14T15:01:37.343Z,15.43
2023-03-14T15:04:12.303Z,15.36
2023-03-14T15:06:41.710Z,15.28
2023-03-14T15:09:14.724Z,15.17
2023-03-14T15:11:43.391Z,15.08
2023-03-14T15:14:12.297Z,14.99
2023-03-14T15:16:43.169Z,14.93
2023-03-14T15:19:25.290Z,14.93
2023-03-14T15:21:55.302Z,14.77
2023-03-14T15:24:24.603Z,14.67
2023-03-14T15:26:55.532Z,14.64
2023-03-14T15:29:24.184Z,14.54
2023-03-14T15:31:52.836Z,14.55
2023-03-14T15:34:21.568Z,14.57
2023-03-14T15:36:50.307Z,14.40
2023-03-14T15:39:18.792Z,14.28
2023-03-14T15:41:47.353Z,14.12
2023-03-14T15:44:16.039Z,14.06
2023-03-14T15:46:44.644Z,13.94
2023-03-14T15:49:13.140Z,13.84
2023-03-14T15:51:41.696Z,13.66
2023-03-14T15:54:10.354Z,13.49
2023-03-14T15:56:42.769Z,13.39
2023-03-14T15:59:13.270Z,13.19
2023-03-14T16:01:43.374Z,13.05
2023-03-14T16:04:11.849Z,12.94
2023-03-14T16:06:40.425Z,12.72
2023-03-14T16:09:09.679Z,12.57
2023-03-14T16:11:38.394Z,12.36
2023-03-14T16:14:07.075Z,12.20
2023-03-14T16:16:35.818Z,11.96
2023-03-14T16:19:06.200Z,11.87
2023-03-14T16:21:34.865Z,11.71
2023-03-14T16:24:06.992Z,11.64
2023-03-14T16:26:37.676Z,11.50
2023-03-14T16:29:06.413Z,11.37
2023-03-14T16:31:35.213Z,11.28
2023-03-14T16:34:04.939Z,11.15
2023-03-14T16:36:33.497Z,10.96
2023-03-14T16:39:02.241Z,10.87
2023-03-14T16:41:32.725Z,10.77
2023-03-14T16:44:02.261Z,10.75
2023-03-14T16:46:31.224Z,10.63
2023-03-14T16:49:00.006Z,10.55
2023-03-14T16:51:28.875Z,10.43
2023-03-14T16:54:09.860Z,10.31
2023-03-14T16:56:48.993Z,10.21
2023-03-14T16:59:45.449Z,10.13
2023-03-14T17:02:13.872Z,10.05
2023-03-14T17:04:44.580Z,9.55
2023-03-14T17:07:54.595Z,9.78
2023-03-14T17:09:53.567Z,9.73
2023-03-14T17:12:22.376Z,9.66
2023-03-14T17:14:50.925Z,9.57
2023-03-14T17:17:19.525Z,9.41
2023-03-14T17:19:48.161Z,9.34
2023-03-14T17:22:26.763Z,9.29
2023-03-14T17:24:47.702Z,9.10
2023-03-14T17:27:17.991Z,9.01
2023-03-14T17:29:47.623Z,9.00
2023-03-14T17:32:18.812Z,8.98
2023-03-14T17:34:47.837Z,8.90
2023-03-14T17:37:23.376Z,8.75
2023-03-14T17:39:52.199Z,8.69
2023-03-14T17:42:20.943Z,8.73
2023-03-14T17:44:50.665Z,8.64
2023-03-14T17:47:23.747Z,8.56
2023-03-14T17:49:53.999Z,8.49
2023-03-14T17:52:28.363Z,8.45
2023-03-14T17:54:56.888Z,8.41
2023-03-14T17:57:27.159Z,8.31
2023-03-14T17:59:56.140Z,8.35
2023-03-14T18:02:26.618Z,8.33
2023-03-14T18:05:01.375Z,8.26
2023-03-14T18:07:31.705Z,8.23
2023-03-14T18:10:05.191Z,8.14
2023-03-14T18:12:36.754Z,8.13
2023-03-14T18:15:06.258Z,8.05
2023-03-14T18:17:38.070Z,8.06
2023-03-14T18:20:07.821Z,7.95
2023-03-14T18:22:36.700Z,7.94
2023-03-14T18:25:05.640Z,7.86
2023-03-14T18:27:34.778Z,7.85
2023-03-14T18:30:12.424Z,7.78
2023-03-14T18:32:42.238Z,7.80
2023-03-14T18:35:11.799Z,7.77
2023-03-14T18:37:40.434Z,7.64
2023-03-14T18:40:15.989Z,7.65
2023-03-14T18:42:46.242Z,7.59
2023-03-14T18:45:19.024Z,7.61
2023-03-14T18:47:47.787Z,7.56
2023-03-14T18:50:16.537Z,7.50
2023-03-14T18:52:48.207Z,7.38
2023-03-14T18:55:16.788Z,7.46
2023-03-14T18:57:47.890Z,7.43
2023-03-14T19:00:16.611Z,7.48
2023-03-14T19:02:47.970Z,7.46
2023-03-14T19:05:18.529Z,7.38
2023-03-14T19:07:47.525Z,7.38
2023-03-14T19:10:16.188Z,7.46
2023-03-14T19:12:44.875Z,7.43
2023-03-14T19:15:14.923Z,7.37
2023-03-14T19:17:43.755Z,7.36
2023-03-14T19:20:13.235Z,7.31
2023-03-14T19:22:42.675Z,7.29
2023-03-14T19:25:15.322Z,7.24
2023-03-14T19:27:52.420Z,6.64
2023-03-14T19:30:45.394Z,7.05
2023-03-14T19:33:22.127Z,7.04
2023-03-14T19:36:12.859Z,7.01
2023-03-14T19:38:47.908Z,6.93
2023-03-14T19:41:27.653Z,6.95
2023-03-14T19:43:57.951Z,6.88
2023-03-14T19:46:47.657Z,6.84
2023-03-14T19:49:33.615Z,6.90
2023-03-14T19:52:10.833Z,6.92
2023-03-14T19:54:51.409Z,6.83
2023-03-14T19:57:27.439Z,6.84
2023-03-14T20:03:13.020Z,6.35
2023-03-14T20:05:44.332Z,6.75
2023-03-14T20:08:17.965Z,6.77
2023-03-14T20:10:48.971Z,6.68
2023-03-14T20:13:23.408Z,6.68
2023-03-14T20:16:01.234Z,6.63
2023-03-14T20:18:31.702Z,6.57
2023-03-14T20:21:01.532Z,6.56
2023-03-14T20:23:33.373Z,6.62
2023-03-14T20:26:19.666Z,6.62
2023-03-14T20:28:58.514Z,6.65
2023-03-14T20:31:41.691Z,6.62
2023-03-14T20:34:11.429Z,6.58
2023-03-14T20:36:40.303Z,6.55
2023-03-14T20:39:11.084Z,6.56
2023-03-14T20:41:41.319Z,6.54
2023-03-14T20:44:12.762Z,6.50
2023-03-14T20:46:42.441Z,6.50
2023-03-14T20:49:14.291Z,6.50
2023-03-14T20:51:43.252Z,6.49
2023-03-14T20:54:16.074Z,6.43
2023-03-14T20:56:46.475Z,6.45
2023-03-14T20:59:16.025Z,6.46
2023-03-14T21:01:46.509Z,6.46
2023-03-14T21:04:16.278Z,6.40
2023-03-14T21:06:47.785Z,6.36
2023-03-14T21:09:16.553Z,6.33
2023-03-14T21:11:47.681Z,6.30
2023-03-14T21:14:18.782Z,6.24
2023-03-14T21:16:48.222Z,6.25
2023-03-14T21:22:22.977Z,6.21
2023-03-14T21:24:51.907Z,6.20
2023-03-14T21:27:31.426Z,6.14
2023-03-14T21:30:00.363Z,6.11
2023-03-14T21:32:30.635Z,6.10
2023-03-14T21:34:59.528Z,6.03
2023-03-14T21:37:28.253Z,6.01
2023-03-14T21:39:57.614Z,6.03
2023-03-14T21:42:37.418Z,5.98
2023-03-14T21:45:12.117Z,6.00
2023-03-14T21:47:42.673Z,5.95
2023-03-14T21:50:13.935Z,5.88
2023-03-14T21:52:46.479Z,5.96
2023-03-14T21:55:18.730Z,5.95
2023-03-14T21:57:49.191Z,5.95
2023-03-14T22:00:47.854Z,5.93
2023-03-14T22:06:16.127Z,5.90
2023-03-14T22:08:44.948Z,5.89
2023-03-14T22:11:13.672Z,5.88
2023-03-14T22:13:42.336Z,5.86
2023-03-14T22:16:12.670Z,5.83
2023-03-14T22:18:47.667Z,5.86
2023-03-14T22:21:26.736Z,5.82
2023-03-14T22:23:57.582Z,5.79
2023-03-14T22:26:59.239Z,5.75
2023-03-14T22:29:38.359Z,5.84
2023-03-14T22:32:05.838Z,5.74
2023-03-14T22:34:35.213Z,5.74
2023-03-14T22:37:05.975Z,5.70
2023-03-14T22:39:35.523Z,5.71
2023-03-14T22:42:05.693Z,5.74
2023-03-14T22:44:36.119Z,5.71
2023-03-14T22:47:05.536Z,5.74
2023-03-14T22:49:34.438Z,5.71
2023-03-14T22:52:03.069Z,5.73
2023-03-14T22:54:35.767Z,5.68
2023-03-14T22:57:06.351Z,5.79
2023-03-14T22:59:40.732Z,5.83
2023-03-14T23:02:18.036Z,5.82
2023-03-14T23:04:50.948Z,5.81
2023-03-14T23:07:19.693Z,5.82
2023-03-14T23:09:48.370Z,5.85
2023-03-14T23:12:17.875Z,5.87
2023-03-14T23:14:51.762Z,5.86
2023-03-14T23:17:20.502Z,5.78
2023-03-14T23:20:01.639Z,5.75
2023-03-14T23:22:31.988Z,5.82
2023-03-14T23:25:01.574Z,5.80
2023-03-14T23:27:30.586Z,5.79
2023-03-14T23:29:59.174Z,5.74
2023-03-14T23:32:28.385Z,5.75
2023-03-14T23:34:58.979Z,5.71
2023-03-14T23:37:27.546Z,5.72
2023-03-14T23:39:57.999Z,5.68
2023-03-14T23:42:28.452Z,5.60
2023-03-14T23:44:57.196Z,5.59
2023-03-14T23:47:26.007Z,5.59
2023-03-14T23:49:54.798Z,5.61
2023-03-14T23:52:24.500Z,5.54
2023-03-14T23:54:58.112Z,5.47
2023-03-14T23:57:32.963Z,5.44
